createdAt,value
2019-06-20T00:01:39.584Z,12.05
2019-06-20T00:04:27.687Z,11.95
2019-06-20T00:07:16.167Z,19.42
2019-06-20T00:10:06.097Z,9.50
2019-06-20T00:13:00.248Z,10.15
2019-06-20T00:15:44.414Z,9.15
2019-06-20T00:18:32.944Z,10.85
2019-06-20T00:21:21.068Z,12.60
2019-06-20T00:24:09.151Z,10.68
2019-06-20T00:26:57.625Z,14.40
2019-06-20T00:29:46.119Z,8.00
2019-06-20T00:32:34.873Z,12.07
2019-06-20T00:35:23.169Z,8.70
2019-06-20T00:38:11.606Z,10.63
2019-06-20T00:41:00.126Z,15.08
2019-06-20T00:43:48.187Z,13.25
2019-06-20T00:46:36.731Z,12.55
2019-06-20T00:49:24.879Z,12.07
2019-06-20T00:52:13.130Z,13.98
2019-06-20T00:55:01.704Z,13.30
2019-06-20T00:57:49.931Z,12.30
2019-06-20T01:00:38.527Z,9.68
2019-06-20T01:03:27.095Z,11.40
2019-06-20T01:06:15.431Z,16.65
2019-06-20T01:09:05.583Z,11.68
2019-06-20T01:11:53.571Z,11.65
2019-06-20T01:14:42.168Z,11.28
2019-06-20T01:17:30.727Z,16.65
2019-06-20T01:20:19.545Z,12.05
2019-06-20T01:23:07.611Z,15.50
2019-06-20T01:25:55.947Z,16.55
2019-06-20T01:28:44.511Z,21.02
2019-06-20T01:31:33.535Z,22.37
2019-06-20T01:34:21.758Z,17.12
2019-06-20T01:37:10.080Z,17.77
2019-06-20T01:39:58.377Z,14.23
2019-06-20T01:42:46.734Z,17.10
2019-06-20T01:45:35.571Z,11.57
2019-06-20T01:48:24.026Z,12.63
2019-06-20T01:51:12.317Z,13.88
2019-06-20T01:54:00.894Z,18.05
2019-06-20T01:56:49.854Z,22.00
2019-06-20T01:59:38.192Z,16.42
2019-06-20T02:02:26.172Z,15.18
2019-06-20T02:05:14.446Z,23.38
2019-06-20T02:08:03.014Z,19.40
2019-06-20T02:10:51.526Z,19.65
2019-06-20T02:13:40.370Z,25.00
2019-06-20T02:16:28.604Z,23.45
2019-06-20T02:19:17.125Z,20.23
2019-06-20T02:22:05.409Z,20.02
2019-06-20T02:24:54.319Z,19.55
2019-06-20T02:27:42.813Z,21.12
2019-06-20T02:30:31.315Z,19.07
2019-06-20T02:33:19.945Z,18.87
2019-06-20T02:36:08.728Z,35.90
2019-06-20T02:38:57.222Z,33.83
2019-06-20T02:41:45.453Z,21.00
2019-06-20T02:44:34.316Z,20.95
2019-06-20T02:47:22.569Z,27.30
2019-06-20T02:50:11.304Z,22.55
2019-06-20T02:52:59.824Z,22.77
2019-06-20T02:55:47.895Z,24.02
2019-06-20T02:58:36.177Z,20.50
2019-06-20T03:01:25.155Z,20.95
2019-06-20T03:04:13.689Z,18.80
2019-06-20T03:07:01.788Z,20.45
2019-06-20T03:09:49.848Z,24.15
2019-06-20T03:12:37.819Z,18.30
2019-06-20T03:15:26.106Z,19.73
2019-06-20T03:18:14.453Z,19.42
2019-06-20T03:21:02.799Z,22.95
2019-06-20T03:23:51.131Z,16.85
2019-06-20T03:26:39.531Z,18.85
2019-06-20T03:29:27.923Z,26.60
2019-06-20T03:32:16.488Z,19.12
2019-06-20T03:35:05.828Z,19.35
2019-06-20T03:37:54.033Z,17.95
2019-06-20T03:40:42.857Z,20.80
2019-06-20T03:43:31.350Z,12.58
2019-06-20T03:46:19.415Z,13.65
2019-06-20T03:49:08.491Z,13.30
2019-06-20T03:51:57.596Z,12.58
2019-06-20T03:54:46.239Z,18.55
2019-06-20T03:57:35.545Z,12.33
2019-06-20T04:00:25.763Z,14.60
2019-06-20T04:03:14.243Z,17.42
2019-06-20T04:06:03.150Z,17.52
2019-06-20T04:08:52.057Z,11.55
2019-06-20T04:11:41.136Z,22.55
2019-06-20T04:14:30.376Z,17.23
2019-06-20T04:17:18.926Z,21.42
2019-06-20T04:20:07.905Z,16.77
2019-06-20T04:22:57.326Z,16.80
2019-06-20T04:25:45.803Z,16.20
2019-06-20T04:28:33.875Z,14.85
2019-06-20T04:31:22.292Z,10.70
2019-06-20T04:34:11.193Z,15.20
2019-06-20T04:36:59.602Z,16.02
2019-06-20T04:39:47.992Z,11.08
2019-06-20T04:42:36.150Z,14.83
2019-06-20T04:45:34.936Z,12.88
2019-06-20T04:48:18.527Z,10.23
2019-06-20T04:51:06.887Z,11.20
2019-06-20T04:53:55.296Z,8.93
2019-06-20T04:56:43.760Z,9.58
2019-06-20T04:59:32.121Z,11.18
2019-06-20T05:02:21.840Z,9.78
2019-06-20T05:05:10.283Z,10.85
2019-06-20T05:08:01.195Z,9.13
2019-06-20T05:10:50.037Z,8.23
2019-06-20T05:13:38.446Z,12.18
2019-06-20T05:16:26.919Z,9.23
2019-06-20T05:19:15.323Z,12.10
2019-06-20T05:22:04.351Z,10.85
2019-06-20T05:24:52.409Z,12.33
2019-06-20T05:27:40.283Z,9.27
2019-06-20T05:30:28.799Z,10.45
2019-06-20T05:33:16.927Z,12.45
2019-06-20T05:36:05.231Z,8.03
2019-06-20T05:38:53.651Z,12.68
2019-06-20T05:41:41.967Z,10.85
2019-06-20T05:44:30.247Z,10.65
2019-06-20T05:47:18.416Z,7.73
2019-06-20T05:50:08.729Z,8.33
2019-06-20T05:52:56.889Z,10.38
2019-06-20T05:55:44.589Z,8.53
2019-06-20T05:58:32.962Z,9.60
2019-06-20T06:01:21.034Z,9.87
2019-06-20T06:04:09.141Z,9.67
2019-06-20T06:06:57.608Z,7.60
2019-06-20T06:09:45.798Z,8.33
2019-06-20T06:12:34.105Z,9.13
2019-06-20T06:15:23.296Z,10.37
2019-06-20T06:18:11.216Z,8.60
2019-06-20T06:20:58.998Z,7.13
2019-06-20T06:23:47.041Z,9.83
2019-06-20T06:26:34.959Z,9.57
2019-06-20T06:29:23.086Z,7.43
2019-06-20T06:32:11.132Z,6.93
2019-06-20T06:34:59.671Z,6.67
2019-06-20T06:37:47.823Z,5.00
2019-06-20T06:40:35.915Z,5.60
2019-06-20T06:43:24.391Z,6.17
2019-06-20T06:46:12.292Z,5.80
2019-06-20T06:49:00.940Z,6.40
2019-06-20T06:51:49.868Z,6.23
2019-06-20T06:54:38.310Z,7.77
2019-06-20T06:57:26.296Z,6.77
2019-06-20T07:00:16.602Z,4.80
2019-06-20T07:03:05.369Z,6.80
2019-06-20T07:05:53.892Z,6.17
2019-06-20T07:08:41.986Z,7.23
2019-06-20T07:11:29.993Z,5.20
2019-06-20T07:14:18.224Z,5.13
2019-06-20T07:17:08.823Z,9.67
2019-06-20T07:19:56.901Z,6.27
2019-06-20T07:22:45.114Z,6.97
2019-06-20T07:25:33.126Z,7.80
2019-06-20T07:28:21.220Z,7.60
2019-06-20T07:31:09.095Z,4.33
2019-06-20T07:33:58.032Z,7.70
2019-06-20T07:36:46.463Z,6.23
2019-06-20T07:39:35.138Z,3.57
2019-06-20T07:42:22.903Z,5.57
2019-06-20T07:45:13.143Z,5.30
2019-06-20T07:48:00.660Z,7.47
2019-06-20T07:50:48.454Z,4.73
2019-06-20T07:53:37.002Z,8.83
2019-06-20T07:56:25.268Z,5.63
2019-06-20T07:59:13.000Z,6.07
2019-06-20T08:02:01.169Z,9.13
2019-06-20T08:04:49.982Z,4.53
2019-06-20T08:07:38.637Z,4.60
2019-06-20T08:10:26.610Z,4.47
2019-06-20T08:13:15.071Z,5.33
2019-06-20T08:16:04.073Z,5.83
2019-06-20T08:18:51.840Z,4.50
2019-06-20T08:21:39.826Z,4.50
2019-06-20T08:24:27.496Z,6.37
2019-06-20T08:27:15.291Z,4.97
2019-06-20T08:30:03.624Z,10.07
2019-06-20T08:32:52.923Z,10.23
2019-06-20T08:35:42.770Z,5.60
2019-06-20T08:38:31.218Z,8.53
2019-06-20T08:41:19.791Z,5.87
2019-06-20T08:44:08.127Z,4.30
2019-06-20T08:46:58.290Z,4.40
2019-06-20T08:49:46.054Z,6.47
2019-06-20T08:52:40.905Z,9.40
2019-06-20T08:55:23.973Z,3.63
2019-06-20T08:58:15.295Z,3.33
2019-06-20T09:03:51.884Z,4.70
2019-06-20T09:06:39.745Z,3.57
2019-06-20T09:09:27.979Z,3.43
2019-06-20T09:12:15.931Z,4.77
2019-06-20T09:15:07.731Z,5.70
2019-06-20T09:17:56.824Z,6.57
2019-06-20T09:20:45.234Z,3.50
2019-06-20T09:23:35.637Z,3.63
2019-06-20T09:26:22.340Z,3.57
2019-06-20T09:29:10.343Z,4.47
2019-06-20T09:31:58.599Z,4.47
2019-06-20T09:34:47.007Z,2.83
2019-06-20T09:37:35.469Z,3.83
2019-06-20T09:40:24.052Z,4.37
2019-06-20T09:43:24.158Z,2.80
2019-06-20T09:46:02.633Z,3.20
2019-06-20T09:48:51.124Z,2.70
2019-06-20T09:51:40.633Z,2.33
2019-06-20T09:54:28.939Z,3.43
2019-06-20T09:57:17.418Z,3.33
2019-06-20T10:00:10.998Z,4.80
2019-06-20T10:02:59.327Z,4.62
2019-06-20T10:05:48.918Z,2.77
2019-06-20T10:08:37.539Z,4.20
2019-06-20T10:11:25.172Z,4.67
2019-06-20T10:14:13.442Z,5.07
2019-06-20T10:17:01.210Z,3.47
2019-06-20T10:19:49.883Z,3.47
2019-06-20T10:22:37.874Z,4.90
2019-06-20T10:25:25.916Z,3.40
2019-06-20T10:28:14.651Z,3.33
2019-06-20T10:31:03.094Z,4.53
2019-06-20T10:33:51.063Z,4.90
2019-06-20T10:36:38.923Z,4.17
2019-06-20T10:39:26.672Z,4.90
2019-06-20T10:42:16.574Z,4.30
2019-06-20T10:45:11.183Z,3.93
2019-06-20T10:47:58.995Z,4.83
2019-06-20T10:50:47.749Z,2.70
2019-06-20T10:53:36.095Z,2.83
2019-06-20T10:56:24.704Z,2.77
2019-06-20T10:59:12.702Z,4.17
2019-06-20T11:02:00.999Z,3.13
2019-06-20T11:04:49.806Z,2.63
2019-06-20T11:07:38.915Z,2.47
2019-06-20T11:10:27.774Z,2.93
2019-06-20T11:13:15.379Z,2.93
2019-06-20T11:16:03.409Z,2.43
2019-06-20T11:18:51.984Z,2.23
2019-06-20T11:21:41.493Z,4.67
2019-06-20T11:24:30.055Z,3.83
2019-06-20T11:27:18.547Z,4.63
2019-06-20T11:30:11.972Z,3.13
2019-06-20T11:33:00.248Z,3.40
2019-06-20T11:35:48.226Z,6.20
2019-06-20T11:38:35.917Z,4.17
2019-06-20T11:41:23.839Z,6.40
2019-06-20T11:44:12.367Z,4.20
2019-06-20T11:47:00.066Z,2.53
2019-06-20T11:49:47.719Z,7.57
2019-06-20T11:52:40.605Z,2.83
2019-06-20T11:55:25.725Z,2.83
2019-06-20T11:58:13.957Z,4.13
2019-06-20T12:01:03.978Z,4.23
2019-06-20T12:03:51.540Z,3.23
2019-06-20T12:06:40.153Z,3.47
2019-06-20T12:09:28.859Z,4.00
2019-06-20T12:12:16.880Z,4.10
2019-06-20T12:15:07.358Z,4.07
2019-06-20T12:17:55.644Z,5.10
2019-06-20T12:20:44.496Z,4.33
2019-06-20T12:23:32.593Z,5.03
2019-06-20T12:26:20.767Z,4.90
2019-06-20T12:29:08.985Z,4.57
2019-06-20T12:31:59.059Z,4.17
2019-06-20T12:34:49.036Z,4.27
2019-06-20T12:37:37.567Z,4.87
2019-06-20T12:40:25.756Z,3.93
2019-06-20T12:43:14.242Z,3.53
2019-06-20T12:46:02.708Z,3.37
2019-06-20T12:48:50.967Z,4.90
2019-06-20T12:51:39.092Z,4.70
2019-06-20T12:54:30.288Z,5.13
2019-06-20T12:57:17.547Z,2.93
2019-06-20T13:00:07.599Z,5.83
2019-06-20T13:02:55.987Z,2.53
2019-06-20T13:05:44.831Z,3.00
2019-06-20T13:08:32.868Z,2.53
2019-06-20T13:11:20.846Z,3.10
2019-06-20T13:14:09.014Z,3.03
2019-06-20T13:16:57.155Z,2.87
2019-06-20T13:19:46.529Z,4.13
2019-06-20T13:22:34.555Z,2.73
2019-06-20T13:25:22.316Z,3.30
2019-06-20T13:28:10.719Z,3.63
2019-06-20T13:30:58.863Z,2.67
2019-06-20T13:33:46.841Z,5.07
2019-06-20T13:36:35.243Z,3.70
2019-06-20T13:39:23.080Z,2.67
2019-06-20T13:42:11.035Z,4.97
2019-06-20T13:44:58.763Z,3.17
2019-06-20T13:47:47.830Z,3.00
2019-06-20T13:50:36.383Z,1.97
2019-06-20T13:53:24.707Z,1.50
2019-06-20T13:56:12.925Z,4.63
2019-06-20T13:59:01.406Z,3.50
2019-06-20T14:01:49.374Z,1.67
2019-06-20T14:04:38.124Z,4.37
2019-06-20T14:07:26.205Z,2.07
2019-06-20T14:10:14.990Z,3.90
2019-06-20T14:13:15.542Z,2.37
2019-06-20T14:15:53.726Z,2.00
2019-06-20T14:18:43.076Z,4.03
2019-06-20T14:21:31.350Z,2.80
2019-06-20T14:24:19.578Z,4.50
2019-06-20T14:27:07.527Z,2.37
2019-06-20T14:29:55.431Z,3.00
2019-06-20T14:32:44.201Z,3.10
2019-06-20T14:35:32.430Z,1.97
2019-06-20T14:38:20.551Z,1.63
2019-06-20T14:41:08.797Z,2.63
2019-06-20T14:43:57.154Z,4.67
2019-06-20T14:46:45.287Z,5.00
2019-06-20T14:49:33.111Z,5.20
2019-06-20T14:52:21.224Z,2.10
2019-06-20T14:55:10.460Z,2.13
2019-06-20T14:57:58.469Z,3.23
2019-06-20T15:00:47.814Z,3.87
2019-06-20T15:03:36.017Z,5.37
2019-06-20T15:06:24.381Z,3.70
2019-06-20T15:09:12.481Z,3.93
2019-06-20T15:12:00.899Z,4.77
2019-06-20T15:14:49.799Z,4.10
2019-06-20T15:17:38.653Z,6.03
2019-06-20T15:20:26.791Z,3.20
2019-06-20T15:23:14.870Z,2.57
2019-06-20T15:26:02.564Z,5.80
2019-06-20T15:28:51.827Z,3.93
2019-06-20T15:31:43.702Z,4.47
2019-06-20T15:34:30.169Z,4.50
2019-06-20T15:37:17.827Z,3.93
2019-06-20T15:40:06.859Z,5.17
2019-06-20T15:42:55.333Z,3.37
2019-06-20T15:45:44.103Z,2.87
2019-06-20T15:48:33.403Z,3.13
2019-06-20T15:51:21.483Z,4.17
2019-06-20T15:54:09.847Z,3.77
2019-06-20T15:56:58.063Z,3.13
2019-06-20T15:59:46.298Z,2.70
2019-06-20T16:02:34.345Z,3.80
2019-06-20T16:05:22.212Z,3.07
2019-06-20T16:08:10.700Z,2.87
2019-06-20T16:10:58.623Z,7.10
2019-06-20T16:13:46.455Z,4.13
2019-06-20T16:16:34.446Z,5.03
2019-06-20T16:19:22.214Z,4.83
2019-06-20T16:22:10.535Z,3.80
2019-06-20T16:24:58.697Z,10.37
2019-06-20T16:27:47.115Z,17.23
2019-06-20T16:30:37.923Z,12.00
2019-06-20T16:37:33.975Z,11.08
2019-06-20T16:44:01.695Z,5.25
2019-06-20T16:47:01.677Z,7.40
2019-06-20T16:50:49.517Z,2.40
2019-06-20T16:53:58.583Z,2.98
2019-06-20T16:56:48.411Z,7.25
2019-06-20T16:59:53.489Z,5.58
2019-06-20T17:02:49.266Z,7.08
2019-06-20T17:05:46.461Z,4.47
2019-06-20T17:08:44.969Z,4.75
2019-06-20T17:14:51.666Z,6.58
2019-06-20T17:24:23.878Z,8.05
2019-06-20T17:27:14.649Z,4.70
2019-06-20T17:33:33.609Z,7.62
2019-06-20T17:33:57.640Z,6.83
2019-06-20T17:36:31.181Z,7.95
2019-06-20T17:39:23.726Z,9.38
2019-06-20T17:42:12.113Z,8.73
2019-06-20T17:45:01.072Z,8.13
2019-06-20T17:47:49.568Z,7.60
2019-06-20T17:50:37.675Z,11.63
2019-06-20T17:53:26.262Z,9.60
2019-06-20T17:56:17.886Z,10.30
2019-06-20T17:59:04.507Z,9.53
2019-06-20T18:01:53.397Z,9.90
2019-06-20T18:04:41.783Z,7.80
2019-06-20T18:07:30.924Z,7.90
2019-06-20T18:10:21.829Z,7.47
2019-06-20T18:13:10.503Z,9.60
2019-06-20T18:15:58.940Z,10.13
2019-06-20T18:18:47.900Z,9.53
2019-06-20T18:21:36.503Z,9.38
2019-06-20T18:24:25.365Z,9.28
2019-06-20T18:27:13.595Z,11.10
2019-06-20T18:30:01.774Z,7.12
2019-06-20T18:32:50.647Z,8.60
2019-06-20T18:35:41.101Z,8.80
2019-06-20T18:38:29.507Z,9.55
2019-06-20T18:41:17.980Z,7.10
2019-06-20T18:44:06.469Z,4.37
2019-06-20T18:46:55.532Z,4.85
2019-06-20T18:49:43.690Z,7.97
2019-06-20T18:52:31.858Z,4.67
2019-06-20T18:55:21.260Z,9.33
2019-06-20T18:58:09.881Z,4.85
2019-06-20T19:00:58.335Z,6.72
2019-06-20T19:03:47.239Z,7.58
2019-06-20T19:06:36.577Z,7.10
2019-06-20T19:09:25.428Z,5.85
2019-06-20T19:12:13.695Z,5.85
2019-06-20T19:15:02.214Z,4.60
2019-06-20T19:17:50.553Z,7.45
2019-06-20T19:20:38.611Z,5.12
2019-06-20T19:23:27.720Z,10.58
2019-06-20T19:26:16.747Z,5.78
2019-06-20T19:29:05.776Z,8.83
2019-06-20T19:31:54.225Z,4.83
2019-06-20T19:34:43.064Z,9.28
2019-06-20T19:37:31.367Z,4.55
2019-06-20T19:40:21.953Z,6.83
2019-06-20T19:43:10.394Z,6.65
2019-06-20T19:45:58.781Z,8.28
2019-06-20T19:48:47.780Z,6.70
2019-06-20T19:51:36.496Z,8.68
2019-06-20T19:54:24.969Z,8.05
2019-06-20T19:57:13.760Z,6.35
2019-06-20T20:00:02.642Z,7.15
2019-06-20T20:02:50.875Z,7.30
2019-06-20T20:05:39.364Z,9.48
2019-06-20T20:08:28.444Z,6.75
2019-06-20T20:11:17.502Z,6.87
2019-06-20T20:14:06.336Z,6.90
2019-06-20T20:16:54.416Z,8.38
2019-06-20T20:19:43.140Z,12.23
2019-06-20T20:22:31.773Z,9.78
2019-06-20T20:25:20.513Z,8.20
2019-06-20T20:28:08.725Z,7.12
2019-06-20T20:30:57.648Z,9.05
2019-06-20T20:33:46.576Z,10.00
2019-06-20T20:36:35.254Z,9.70
2019-06-20T20:39:24.437Z,8.93
2019-06-20T20:42:12.889Z,10.53
2019-06-20T20:45:01.580Z,9.40
2019-06-20T20:47:50.033Z,10.32
2019-06-20T20:50:38.717Z,13.48
2019-06-20T20:53:27.164Z,17.67
2019-06-20T20:56:15.557Z,10.72
2019-06-20T20:59:04.300Z,10.38
2019-06-20T21:01:52.869Z,9.63
2019-06-20T21:04:41.241Z,9.33
2019-06-20T21:07:30.020Z,15.32
2019-06-20T21:10:19.064Z,13.70
2019-06-20T21:13:07.416Z,27.22
2019-06-20T21:15:56.184Z,20.82
2019-06-20T21:18:45.084Z,13.22
2019-06-20T21:21:33.802Z,12.88
2019-06-20T21:24:22.434Z,21.05
2019-06-20T21:27:11.110Z,13.48
2019-06-20T21:29:59.906Z,21.27
2019-06-20T21:32:48.500Z,17.60
2019-06-20T21:35:36.604Z,21.17
2019-06-20T21:38:25.619Z,21.73
2019-06-20T21:41:14.601Z,28.75
2019-06-20T21:44:03.282Z,19.57
2019-06-20T21:46:51.668Z,20.75
2019-06-20T21:49:40.402Z,10.75
2019-06-20T21:52:28.795Z,17.07
2019-06-20T21:55:17.527Z,18.02
2019-06-20T21:58:06.241Z,13.72
2019-06-20T22:00:58.159Z,14.73
2019-06-20T22:03:47.001Z,14.70
2019-06-20T22:06:35.615Z,16.70
2019-06-20T22:09:24.046Z,15.75
2019-06-20T22:12:12.371Z,21.00
2019-06-20T22:15:01.293Z,18.73
2019-06-20T22:17:50.124Z,14.93
2019-06-20T22:20:38.488Z,25.27
2019-06-20T22:23:28.212Z,16.02
2019-06-20T22:26:19.212Z,17.17
2019-06-20T22:29:08.032Z,18.77
2019-06-20T22:31:56.513Z,16.27
2019-06-20T22:34:45.606Z,14.25
2019-06-20T22:37:33.786Z,11.55
2019-06-20T22:40:24.625Z,17.35
2019-06-20T22:43:19.784Z,14.73
2019-06-20T22:46:08.033Z,23.60
2019-06-20T22:48:59.109Z,21.48
2019-06-20T22:51:51.800Z,25.88
2019-06-20T22:54:44.173Z,18.52
2019-06-20T22:57:32.931Z,13.93
2019-06-20T23:00:24.369Z,17.32
2019-06-20T23:03:13.645Z,30.88
2019-06-20T23:06:02.497Z,19.62
2019-06-20T23:08:52.961Z,15.93
2019-06-20T23:11:43.867Z,14.00
2019-06-20T23:14:33.437Z,10.55
2019-06-20T23:17:21.832Z,17.48
2019-06-20T23:20:11.548Z,17.17
2019-06-20T23:23:04.757Z,27.93
2019-06-20T23:25:57.173Z,21.43
2019-06-20T23:28:47.558Z,19.37
2019-06-20T23:31:39.366Z,17.92
2019-06-20T23:34:31.564Z,18.45
2019-06-20T23:37:22.748Z,20.62
2019-06-20T23:40:14.596Z,24.52
2019-06-20T23:43:03.494Z,45.67
2019-06-20T23:45:54.685Z,22.98
2019-06-20T23:48:43.498Z,26.00
2019-06-20T23:51:35.408Z,47.20
2019-06-20T23:54:24.154Z,57.83
2019-06-20T23:57:12.523Z,51.83
